Time;durP1;ratioP1;P1;durP2;ratioP2;P2;SDS_P1;SDS_P2;PMS_P1;PMS_P2;Temp;Humidity;BMP_temperature;BMP_pressure;BME280_temperature;BME280_humidity;BME280_pressure;Samples;Min_cycle;Max_cycle;Signal;HPM_P1;HPM_P2
2023/03/22 00:02:21;;;;;;;;;;;9.90;99.90;;;;;;5111164;28;1158;-72
2023/03/22 00:04:47;;;;;;;;;;;10.00;99.90;;;;;;5092037;28;1176;-72
2023/03/22 00:07:13;;;;;;;;;;;10.00;99.90;;;;;;5111223;28;1246;-72
2023/03/22 00:09:39;;;;;;;;;;;10.00;99.90;;;;;;5110426;28;1104;-72
2023/03/22 00:12:04;;;;;;;;;;;10.00;99.90;;;;;;5091930;28;1918;-72
2023/03/22 00:14:30;;;;;;;;;;;10.00;99.90;;;;;;5092922;28;1129;-72
2023/03/22 00:16:56;;;;;;;;;;;9.90;99.90;;;;;;5110629;28;1124;-72
2023/03/22 00:19:21;;;;;;;;;;;9.90;99.90;;;;;;5109562;28;1138;-72
2023/03/22 00:21:47;;;;;;;;;;;9.90;99.90;;;;;;5111042;28;1323;-72
2023/03/22 00:24:13;;;;;;;;;;;9.90;99.90;;;;;;5110481;28;967;-72
2023/03/22 00:26:38;;;;;;;;;;;9.80;99.90;;;;;;5088068;28;1084;-72
2023/03/22 00:29:04;;;;;;;;;;;9.80;99.90;;;;;;5106320;28;1159;-72
2023/03/22 00:31:30;;;;;;;;;;;9.90;99.90;;;;;;5110722;28;1981;-72
2023/03/22 00:33:56;;;;;;;;;;;9.80;99.90;;;;;;5091898;28;1104;-72
2023/03/22 00:36:22;;;;;;;;;;;9.90;99.90;;;;;;5109543;28;1113;-73
2023/03/22 00:38:50;;;;;;;;;;;9.80;99.90;;;;;;5110075;28;1077;-72
2023/03/22 00:41:17;;;;;;;;;;;9.90;99.90;;;;;;5091747;28;1509;-72
2023/03/22 00:43:44;;;;;;;;;;;9.80;99.90;;;;;;5074968;28;1103;-72
2023/03/22 00:46:11;;;;;;;;;;;9.80;99.90;;;;;;5100884;28;1125;-72
2023/03/22 00:48:37;;;;;;;;;;;9.80;99.90;;;;;;5110262;28;1101;-72
2023/03/22 00:51:03;;;;;;;;;;;9.80;99.90;;;;;;5075051;28;1286;-72
2023/03/22 00:53:32;;;;;;;;;;;9.80;99.90;;;;;;5076352;28;1906;-73
2023/03/22 00:55:58;;;;;;;;;;;9.80;99.90;;;;;;5091410;28;1016;-72
2023/03/22 00:58:24;;;;;;;;;;;9.80;99.90;;;;;;5091917;28;1088;-72
2023/03/22 01:00:50;;;;;;;;;;;9.90;99.90;;;;;;5091677;28;1108;-72
2023/03/22 01:03:16;;;;;;;;;;;9.80;99.90;;;;;;5104556;27;1125;-72
2023/03/22 01:05:44;;;;;;;;;;;9.80;99.90;;;;;;5120284;27;1213;-72
2023/03/22 01:08:11;;;;;;;;;;;9.70;99.90;;;;;;5088012;28;1048;-72
2023/03/22 01:10:38;;;;;;;;;;;9.70;99.90;;;;;;5108022;28;1171;-72
2023/03/22 01:13:04;;;;;;;;;;;9.70;99.90;;;;;;5125389;27;1913;-72
2023/03/22 01:15:30;;;;;;;;;;;9.70;99.90;;;;;;5109437;28;1182;-72
2023/03/22 01:17:56;;;;;;;;;;;9.70;99.90;;;;;;5091504;28;1168;-72
2023/03/22 01:20:22;;;;;;;;;;;9.70;99.90;;;;;;5096454;28;1194;-73
2023/03/22 01:22:48;;;;;;;;;;;9.60;99.90;;;;;;5112106;27;1318;-72
2023/03/22 01:25:14;;;;;;;;;;;9.60;99.90;;;;;;5091021;28;1125;-72
2023/03/22 01:27:40;;;;;;;;;;;9.70;99.90;;;;;;5125686;28;1249;-72
2023/03/22 01:30:06;;;;;;;;;;;9.60;99.90;;;;;;5090508;28;1142;-72
2023/03/22 01:32:32;;;;;;;;;;;9.60;99.90;;;;;;5074011;28;1971;-72
2023/03/22 01:34:57;;;;;;;;;;;9.70;99.90;;;;;;5091215;28;1060;-72
2023/03/22 01:37:26;;;;;;;;;;;9.60;99.90;;;;;;5121832;28;1159;-72
2023/03/22 01:39:53;;;;;;;;;;;9.70;99.90;;;;;;5065335;28;1143;-72
2023/03/22 01:42:21;;;;;;;;;;;9.70;99.90;;;;;;5073788;28;1498;-72
2023/03/22 01:45:06;;;;;;;;;;;9.60;99.90;;;;;;5091238;28;1370;-72
2023/03/22 01:47:33;;;;;;;;;;;9.60;99.90;;;;;;5090391;28;1129;-72
2023/03/22 01:49:59;;;;;;;;;;;9.60;99.90;;;;;;5094959;28;1159;-72
2023/03/22 01:52:25;;;;;;;;;;;9.60;99.90;;;;;;5078503;28;1909;-72
2023/03/22 01:55:05;;;;;;;;;;;9.60;99.90;;;;;;5094446;28;1160;-72
2023/03/22 01:57:42;;;;;;;;;;;9.50;99.90;;;;;;5094775;28;1100;-72
2023/03/22 02:00:14;;;;;;;;;;;9.50;99.90;;;;;;5113349;28;1093;-72
2023/03/22 02:02:58;;;;;;;;;;;9.50;99.90;;;;;;5095155;27;1562;-72
2023/03/22 02:05:33;;;;;;;;;;;9.50;99.90;;;;;;5116933;27;1315;-72
2023/03/22 02:08:00;;;;;;;;;;;9.50;99.90;;;;;;5128991;27;1135;-72
2023/03/22 02:10:30;;;;;;;;;;;9.50;99.90;;;;;;5094481;28;1085;-72
2023/03/22 02:12:59;;;;;;;;;;;9.50;99.90;;;;;;5098370;27;2003;-72
2023/03/22 02:15:45;;;;;;;;;;;9.50;99.90;;;;;;5149778;27;1143;-72
2023/03/22 02:18:37;;;;;;;;;;;9.50;99.90;;;;;;5114725;27;1084;-72
2023/03/22 02:21:13;;;;;;;;;;;9.50;99.90;;;;;;5149962;27;1165;-72
2023/03/22 02:23:43;;;;;;;;;;;9.50;99.90;;;;;;5086038;28;1203;-72
2023/03/22 02:26:23;;;;;;;;;;;9.50;99.90;;;;;;5094081;28;1162;-72
2023/03/22 02:28:53;;;;;;;;;;;9.40;99.90;;;;;;5094922;28;1144;-72
2023/03/22 02:31:28;;;;;;;;;;;9.40;99.90;;;;;;5093509;28;1184;-72
2023/03/22 02:34:14;;;;;;;;;;;9.40;99.90;;;;;;5094446;28;1934;-72
2023/03/22 02:36:59;;;;;;;;;;;9.40;99.90;;;;;;5094499;28;1126;-72
2023/03/22 02:39:43;;;;;;;;;;;9.40;99.90;;;;;;5127426;27;1171;-72
2023/03/22 02:42:18;;;;;;;;;;;9.40;99.90;;;;;;5128043;27;1489;-72
2023/03/22 02:44:48;;;;;;;;;;;9.40;99.90;;;;;;5077629;28;1106;-72
2023/03/22 02:47:27;;;;;;;;;;;9.40;99.90;;;;;;5111864;28;1128;-72
2023/03/22 02:49:57;;;;;;;;;;;9.40;99.90;;;;;;5073720;28;1158;-72
2023/03/22 02:52:27;;;;;;;;;;;9.40;99.90;;;;;;5094080;28;1927;-72
2023/03/22 02:54:57;;;;;;;;;;;9.40;99.90;;;;;;5077018;28;1129;-72
2023/03/22 02:57:29;;;;;;;;;;;9.50;99.90;;;;;;5096225;28;1404;-72
2023/03/22 02:59:57;;;;;;;;;;;9.50;99.90;;;;;;5096518;28;1135;-72
2023/03/22 03:02:25;;;;;;;;;;;9.50;99.90;;;;;;5094205;28;1156;-72
2023/03/22 03:04:51;;;;;;;;;;;9.50;99.90;;;;;;5112039;28;1060;-72
2023/03/22 03:07:20;;;;;;;;;;;9.60;99.90;;;;;;5092724;28;1219;-72
2023/03/22 03:09:46;;;;;;;;;;;9.60;99.90;;;;;;5076737;28;1129;-72
2023/03/22 03:12:18;;;;;;;;;;;9.60;99.90;;;;;;5093694;28;1915;-72
2023/03/22 03:14:44;;;;;;;;;;;9.60;99.90;;;;;;5108668;28;1124;-71
2023/03/22 03:17:19;;;;;;;;;;;9.60;99.90;;;;;;5085210;28;1172;-72
2023/03/22 03:19:50;;;;;;;;;;;9.50;99.90;;;;;;5093966;28;1109;-71
2023/03/22 03:22:17;;;;;;;;;;;9.60;99.90;;;;;;5093476;28;1220;-72
2023/03/22 03:24:47;;;;;;;;;;;9.60;99.90;;;;;;5111148;28;1019;-72
2023/03/22 03:27:19;;;;;;;;;;;9.60;99.90;;;;;;5112219;28;1104;-72
2023/03/22 03:29:44;;;;;;;;;;;9.50;99.90;;;;;;5076515;28;1180;-72
2023/03/22 03:32:18;;;;;;;;;;;9.50;99.90;;;;;;5092511;28;1973;-71
2023/03/22 03:34:48;;;;;;;;;;;9.60;99.90;;;;;;5111237;28;1165;-72
2023/03/22 03:37:17;;;;;;;;;;;9.60;99.90;;;;;;5093432;28;1108;-72
2023/03/22 03:39:47;;;;;;;;;;;9.60;99.90;;;;;;5111341;28;1096;-72
2023/03/22 03:42:14;;;;;;;;;;;9.50;99.90;;;;;;5098504;28;1213;-72
2023/03/22 03:44:40;;;;;;;;;;;9.60;99.90;;;;;;5093152;28;1187;-72
2023/03/22 03:47:07;;;;;;;;;;;9.50;99.90;;;;;;5126683;27;1711;-72
2023/03/22 03:49:33;;;;;;;;;;;9.50;99.90;;;;;;5111088;28;1085;-72
2023/03/22 03:51:59;;;;;;;;;;;9.60;99.90;;;;;;5092417;28;1909;-72
2023/03/22 03:54:25;;;;;;;;;;;9.60;99.90;;;;;;5092981;28;962;-72
2023/03/22 03:56:52;;;;;;;;;;;9.60;99.90;;;;;;5092476;28;1176;-72
2023/03/22 03:59:19;;;;;;;;;;;9.60;99.90;;;;;;5087267;28;1294;-72
2023/03/22 04:01:53;;;;;;;;;;;9.60;99.90;;;;;;5125400;27;1116;-72
2023/03/22 04:04:25;;;;;;;;;;;9.60;99.90;;;;;;5110707;28;1115;-73
2023/03/22 04:06:57;;;;;;;;;;;9.60;99.90;;;;;;5092763;28;1213;-72
2023/03/22 04:09:25;;;;;;;;;;;9.60;99.90;;;;;;5093642;28;1142;-72
2023/03/22 04:11:55;;;;;;;;;;;9.60;99.90;;;;;;5091436;28;2009;-72
2023/03/22 04:14:21;;;;;;;;;;;9.60;99.90;;;;;;5092746;28;1125;-72
2023/03/22 04:16:49;;;;;;;;;;;9.70;99.90;;;;;;5062945;28;1149;-72
2023/03/22 04:19:18;;;;;;;;;;;9.70;99.90;;;;;;5126751;27;1008;-72
2023/03/22 04:21:44;;;;;;;;;;;9.60;99.90;;;;;;5092683;28;1315;-72
2023/03/22 04:24:11;;;;;;;;;;;9.60;99.90;;;;;;5091707;28;1376;-72
2023/03/22 04:26:40;;;;;;;;;;;9.60;99.90;;;;;;5110687;28;1152;-72
2023/03/22 04:29:21;;;;;;;;;;;9.60;99.90;;;;;;5092582;28;1196;-72
2023/03/22 04:31:53;;;;;;;;;;;9.60;99.90;;;;;;5110043;28;1910;-72
2023/03/22 04:34:22;;;;;;;;;;;9.60;99.90;;;;;;5091824;28;1128;-72
2023/03/22 04:36:53;;;;;;;;;;;9.50;99.90;;;;;;5092409;28;1183;-72
2023/03/22 04:39:25;;;;;;;;;;;9.40;99.90;;;;;;5092028;28;1065;-72
2023/03/22 04:42:16;;;;;;;;;;;9.50;99.90;;;;;;5095328;28;1333;-72
2023/03/22 04:44:44;;;;;;;;;;;9.50;99.90;;;;;;5095721;28;1193;-72
2023/03/22 04:47:10;;;;;;;;;;;9.50;99.90;;;;;;5091564;28;1132;-73
2023/03/22 04:49:36;;;;;;;;;;;9.40;99.90;;;;;;5092259;28;1104;-72
2023/03/22 04:52:02;;;;;;;;;;;9.50;99.90;;;;;;5109249;28;2411;-72
2023/03/22 04:54:33;;;;;;;;;;;9.40;99.90;;;;;;5092100;28;1204;-72
2023/03/22 04:57:00;;;;;;;;;;;9.40;99.90;;;;;;5091843;28;1151;-72
2023/03/22 04:59:28;;;;;;;;;;;9.40;99.90;;;;;;5091134;28;1112;-72
2023/03/22 05:01:56;;;;;;;;;;;9.40;99.90;;;;;;5078555;28;1158;-72
2023/03/22 05:04:26;;;;;;;;;;;9.30;99.90;;;;;;5091759;28;1081;-72
2023/03/22 05:06:58;;;;;;;;;;;9.40;99.90;;;;;;5091025;28;1251;-72
2023/03/22 05:09:32;;;;;;;;;;;9.40;99.90;;;;;;5074378;28;1165;-72
2023/03/22 05:11:58;;;;;;;;;;;9.50;99.90;;;;;;5125780;27;1904;-72
2023/03/22 05:14:27;;;;;;;;;;;9.50;99.90;;;;;;5074271;28;1156;-72
2023/03/22 05:16:53;;;;;;;;;;;9.50;99.90;;;;;;5109912;28;1080;-72
2023/03/22 05:19:21;;;;;;;;;;;9.50;99.90;;;;;;5099488;27;1180;-72
2023/03/22 05:21:48;;;;;;;;;;;9.60;99.90;;;;;;5105193;28;1338;-72
2023/03/22 05:24:14;;;;;;;;;;;9.60;99.90;;;;;;5074269;28;1093;-72
2023/03/22 05:26:43;;;;;;;;;;;9.60;99.90;;;;;;5091596;28;1172;-72
2023/03/22 05:29:11;;;;;;;;;;;9.60;99.90;;;;;;5090708;28;1238;-72
2023/03/22 05:31:52;;;;;;;;;;;9.70;99.90;;;;;;5074533;28;1914;-72
2023/03/22 05:34:19;;;;;;;;;;;9.70;99.90;;;;;;5090520;28;1085;-72
2023/03/22 05:36:45;;;;;;;;;;;9.60;99.90;;;;;;5093310;28;1124;-72
2023/03/22 05:39:25;;;;;;;;;;;9.70;99.90;;;;;;5062142;28;1241;-72
2023/03/22 05:41:51;;;;;;;;;;;9.70;99.90;;;;;;5088084;28;1255;-72
2023/03/22 05:44:18;;;;;;;;;;;9.70;99.90;;;;;;5091492;28;1151;-72
2023/03/22 05:46:54;;;;;;;;;;;9.70;99.90;;;;;;5072834;28;1201;-72
2023/03/22 05:49:31;;;;;;;;;;;9.70;99.90;;;;;;5087630;28;1124;-72
2023/03/22 05:51:57;;;;;;;;;;;9.70;99.90;;;;;;5087253;28;1971;-72
2023/03/22 05:54:28;;;;;;;;;;;9.70;99.90;;;;;;5087452;28;1136;-72
2023/03/22 05:56:54;;;;;;;;;;;9.70;99.90;;;;;;5088280;28;1163;-72
2023/03/22 05:59:20;;;;;;;;;;;9.70;99.90;;;;;;5087472;28;1096;-72
2023/03/22 06:01:46;;;;;;;;;;;9.80;99.90;;;;;;5087986;28;1120;-72
2023/03/22 06:04:17;;;;;;;;;;;9.70;99.90;;;;;;5098643;28;1138;-72
2023/03/22 06:06:52;;;;;;;;;;;9.80;99.90;;;;;;5092327;28;1124;-72
2023/03/22 06:09:32;;;;;;;;;;;9.80;99.90;;;;;;5070602;28;1117;-72
2023/03/22 06:11:59;;;;;;;;;;;9.90;99.90;;;;;;5087479;28;1918;-71
2023/03/22 06:14:24;;;;;;;;;;;9.80;99.90;;;;;;5103980;28;1105;-72
2023/03/22 06:17:10;;;;;;;;;;;9.80;99.90;;;;;;5107115;28;1309;-71
2023/03/22 06:19:37;;;;;;;;;;;9.90;99.90;;;;;;5108260;28;1103;-72
2023/03/22 06:22:05;;;;;;;;;;;9.90;99.90;;;;;;5090981;28;1288;-72
2023/03/22 06:24:33;;;;;;;;;;;9.90;99.90;;;;;;5087380;28;1113;-72
2023/03/22 06:26:59;;;;;;;;;;;10.00;99.90;;;;;;5070609;28;1125;-72
2023/03/22 06:29:26;;;;;;;;;;;9.90;99.90;;;;;;5066658;28;1125;-72
2023/03/22 06:31:55;;;;;;;;;;;10.00;99.90;;;;;;5113254;28;1918;-72
2023/03/22 06:34:20;;;;;;;;;;;10.00;99.90;;;;;;5088526;28;1130;-72
2023/03/22 06:36:47;;;;;;;;;;;10.10;99.90;;;;;;5091820;28;1088;-72
2023/03/22 06:39:21;;;;;;;;;;;10.10;99.90;;;;;;5090447;28;1114;-72
2023/03/22 06:41:47;;;;;;;;;;;10.20;99.90;;;;;;5091022;28;1517;-72
2023/03/22 06:44:13;;;;;;;;;;;10.20;99.90;;;;;;5090458;28;1697;-72
2023/03/22 06:46:59;;;;;;;;;;;10.20;99.90;;;;;;5090517;28;1228;-72
2023/03/22 06:49:42;;;;;;;;;;;10.30;99.90;;;;;;5091263;28;1214;-72
2023/03/22 06:52:13;;;;;;;;;;;10.40;99.90;;;;;;5089866;28;1910;-72
2023/03/22 06:54:39;;;;;;;;;;;10.40;99.90;;;;;;5091219;28;1088;-72
2023/03/22 06:57:04;;;;;;;;;;;10.40;99.90;;;;;;5091534;28;1139;-72
2023/03/22 06:59:30;;;;;;;;;;;10.40;99.90;;;;;;5090247;28;1093;-72
2023/03/22 07:01:56;;;;;;;;;;;10.40;99.90;;;;;;5090673;28;1140;-72
2023/03/22 07:04:23;;;;;;;;;;;10.40;99.90;;;;;;5090743;28;1089;-72
2023/03/22 07:06:49;;;;;;;;;;;10.40;99.90;;;;;;5072251;28;1122;-72
2023/03/22 07:09:15;;;;;;;;;;;10.50;99.90;;;;;;5090750;28;1140;-72
2023/03/22 07:11:41;;;;;;;;;;;10.50;99.90;;;;;;5090771;28;1977;-72
2023/03/22 07:14:08;;;;;;;;;;;10.50;99.90;;;;;;5089578;28;1168;-72
2023/03/22 07:16:54;;;;;;;;;;;10.50;99.90;;;;;;5095345;28;1104;-72
2023/03/22 07:19:21;;;;;;;;;;;10.50;99.90;;;;;;5090338;28;1222;-72
2023/03/22 07:21:47;;;;;;;;;;;10.60;99.90;;;;;;5091657;28;1218;-72
2023/03/22 07:24:13;;;;;;;;;;;10.60;99.90;;;;;;5089516;28;1283;-72
2023/03/22 07:26:40;;;;;;;;;;;10.60;99.90;;;;;;5090133;28;1160;-72
2023/03/22 07:29:06;;;;;;;;;;;10.70;99.90;;;;;;5090202;28;1089;-72
2023/03/22 07:31:39;;;;;;;;;;;10.80;99.90;;;;;;5068059;28;1318;-72
2023/03/22 07:34:15;;;;;;;;;;;11.00;99.90;;;;;;5070546;28;1105;-72
2023/03/22 07:36:55;;;;;;;;;;;11.00;99.90;;;;;;5089684;28;1081;-72
2023/03/22 07:39:23;;;;;;;;;;;10.90;99.90;;;;;;5073366;28;1153;-72
2023/03/22 07:41:49;;;;;;;;;;;10.90;99.90;;;;;;5071658;28;1235;-72
2023/03/22 07:44:22;;;;;;;;;;;10.80;99.90;;;;;;5090491;28;1191;-72
2023/03/22 07:47:05;;;;;;;;;;;10.80;99.90;;;;;;5096787;27;1291;-72
2023/03/22 07:49:38;;;;;;;;;;;10.80;99.90;;;;;;5063270;28;1194;-72
2023/03/22 07:52:17;;;;;;;;;;;10.80;99.90;;;;;;5083535;28;1906;-72
2023/03/22 07:54:42;;;;;;;;;;;10.80;99.90;;;;;;5091837;28;1268;-72
2023/03/22 07:57:08;;;;;;;;;;;10.70;99.90;;;;;;5090577;28;1232;-72
2023/03/22 07:59:39;;;;;;;;;;;10.70;99.90;;;;;;5074190;28;1271;-72
2023/03/22 08:02:05;;;;;;;;;;;10.70;99.90;;;;;;5089464;28;1132;-72
2023/03/22 08:04:38;;;;;;;;;;;10.70;99.90;;;;;;5089512;28;1081;-72
2023/03/22 08:07:12;;;;;;;;;;;10.70;99.90;;;;;;5073054;28;1107;-72
2023/03/22 08:09:40;;;;;;;;;;;10.60;99.90;;;;;;5072062;28;2019;-72
2023/03/22 08:12:06;;;;;;;;;;;10.60;99.90;;;;;;5122388;27;1914;-73
2023/03/22 08:14:33;;;;;;;;;;;10.60;99.90;;;;;;5090822;28;1295;-72
2023/03/22 08:17:00;;;;;;;;;;;10.60;99.90;;;;;;5086745;28;1246;-73
2023/03/22 08:19:26;;;;;;;;;;;10.60;99.90;;;;;;5089353;28;1306;-72
2023/03/22 08:21:52;;;;;;;;;;;10.60;99.90;;;;;;5090682;28;1263;-72
2023/03/22 08:24:44;;;;;;;;;;;10.60;99.90;;;;;;5089224;28;1306;-72
2023/03/22 08:27:19;;;;;;;;;;;10.70;99.90;;;;;;5086476;28;1243;-72
2023/03/22 08:29:48;;;;;;;;;;;10.70;99.90;;;;;;5085786;28;3630;-72
2023/03/22 08:32:15;;;;;;;;;;;10.80;99.90;;;;;;5070998;28;3454;-72
2023/03/22 08:34:41;;;;;;;;;;;10.90;99.90;;;;;;5070159;28;1087;-72
2023/03/22 08:37:08;;;;;;;;;;;11.10;99.90;;;;;;5121295;27;4057;-72
2023/03/22 08:39:35;;;;;;;;;;;11.10;99.90;;;;;;5088951;28;1014;-72
2023/03/22 08:42:18;;;;;;;;;;;11.10;99.90;;;;;;5096902;28;1556;-72
2023/03/22 08:44:45;;;;;;;;;;;11.00;99.90;;;;;;5125512;27;1118;-72
2023/03/22 08:47:10;;;;;;;;;;;11.00;99.90;;;;;;5108508;28;1106;-72
2023/03/22 08:49:37;;;;;;;;;;;11.00;99.90;;;;;;5091915;28;3614;-72
2023/03/22 08:52:11;;;;;;;;;;;10.90;99.90;;;;;;5070286;28;1910;-73
2023/03/22 08:54:51;;;;;;;;;;;10.90;99.90;;;;;;5087823;28;3578;-73
2023/03/22 08:57:36;;;;;;;;;;;10.90;99.90;;;;;;5099544;28;3149;-72
2023/03/22 09:00:23;;;;;;;;;;;10.90;99.90;;;;;;5095060;28;2903;-73
2023/03/22 09:02:58;;;;;;;;;;;11.00;99.90;;;;;;5097672;28;1392;-73
2023/03/22 09:05:24;;;;;;;;;;;11.00;99.90;;;;;;5099659;28;1156;-73
2023/03/22 09:07:52;;;;;;;;;;;11.00;99.90;;;;;;5136241;27;1214;-72
2023/03/22 09:10:27;;;;;;;;;;;11.00;99.90;;;;;;5127562;27;1196;-73
2023/03/22 09:12:53;;;;;;;;;;;11.00;99.90;;;;;;5099202;28;2618;-73
2023/03/22 09:15:18;;;;;;;;;;;11.00;99.90;;;;;;5109409;28;1169;-73
2023/03/22 09:17:53;;;;;;;;;;;11.10;99.90;;;;;;5090730;28;1069;-73
2023/03/22 09:20:24;;;;;;;;;;;11.20;99.90;;;;;;5089925;28;1180;-73
2023/03/22 09:22:50;;;;;;;;;;;11.30;99.90;;;;;;5123293;27;1330;-73
2023/03/22 09:25:17;;;;;;;;;;;11.30;99.90;;;;;;5074790;28;1192;-73
2023/03/22 09:27:46;;;;;;;;;;;11.40;99.90;;;;;;5090392;28;1264;-73
2023/03/22 09:30:12;;;;;;;;;;;11.50;99.90;;;;;;5091131;28;1175;-73
2023/03/22 09:32:38;;;;;;;;;;;11.40;99.90;;;;;;5109515;28;1910;-73
2023/03/22 09:35:05;;;;;;;;;;;11.40;99.90;;;;;;5091621;28;1235;-73
2023/03/22 09:37:38;;;;;;;;;;;11.30;99.90;;;;;;5091438;28;1116;-73
2023/03/22 09:40:05;;;;;;;;;;;11.30;99.90;;;;;;5090544;28;1133;-73
2023/03/22 09:42:37;;;;;;;;;;;11.20;99.90;;;;;;5090062;28;1297;-73
2023/03/22 09:45:06;;;;;;;;;;;11.20;99.90;;;;;;5073599;28;1530;-73
2023/03/22 09:47:34;;;;;;;;;;;11.20;99.90;;;;;;5093267;28;1012;-73
2023/03/22 09:50:04;;;;;;;;;;;11.20;99.90;;;;;;5115563;28;1206;-72
2023/03/22 09:52:29;;;;;;;;;;;11.20;99.90;;;;;;5109266;28;1906;-73
2023/03/22 09:54:55;;;;;;;;;;;11.40;99.90;;;;;;5104424;28;1142;-73
2023/03/22 09:57:31;;;;;;;;;;;11.30;99.90;;;;;;5093474;28;1130;-73
2023/03/22 10:00:10;;;;;;;;;;;11.30;99.90;;;;;;5135155;27;1267;-73
2023/03/22 10:02:44;;;;;;;;;;;11.30;99.90;;;;;;5106492;28;1219;-73
2023/03/22 10:05:13;;;;;;;;;;;11.30;99.90;;;;;;5108450;28;1235;-73
2023/03/22 10:07:49;;;;;;;;;;;11.30;99.90;;;;;;5111431;28;1291;-73
2023/03/22 10:10:17;;;;;;;;;;;11.10;99.90;;;;;;5098839;28;1109;-73
2023/03/22 10:12:49;;;;;;;;;;;11.10;99.90;;;;;;5123551;27;1913;-73
2023/03/22 10:15:17;;;;;;;;;;;11.00;99.90;;;;;;5137528;27;1186;-73
2023/03/22 10:17:45;;;;;;;;;;;11.00;99.90;;;;;;5114489;27;1126;-73
2023/03/22 10:20:22;;;;;;;;;;;11.00;99.90;;;;;;5102180;28;1187;-73
2023/03/22 10:22:49;;;;;;;;;;;11.00;99.90;;;;;;5112984;27;1303;-73
2023/03/22 10:25:18;;;;;;;;;;;11.00;99.90;;;;;;5112478;28;1234;-73
2023/03/22 10:27:46;;;;;;;;;;;11.00;99.90;;;;;;5112789;28;1305;-73
2023/03/22 10:30:15;;;;;;;;;;;11.00;99.90;;;;;;5087736;28;1114;-73
2023/03/22 10:32:44;;;;;;;;;;;10.90;99.90;;;;;;5112466;28;1946;-73
2023/03/22 10:35:12;;;;;;;;;;;10.90;99.90;;;;;;5130527;27;1111;-72
2023/03/22 10:37:39;;;;;;;;;;;10.80;99.90;;;;;;5111466;28;982;-72
2023/03/22 10:40:05;;;;;;;;;;;10.80;99.90;;;;;;5112609;28;1219;-72
2023/03/22 10:42:31;;;;;;;;;;;10.60;99.90;;;;;;5112363;28;1576;-72
2023/03/22 10:45:02;;;;;;;;;;;10.50;99.90;;;;;;5098047;28;1057;-72
2023/03/22 10:47:32;;;;;;;;;;;10.30;99.90;;;;;;5111472;28;1318;-72
2023/03/22 10:50:02;;;;;;;;;;;10.00;99.90;;;;;;5112769;28;1136;-72
2023/03/22 10:52:46;;;;;;;;;;;9.80;99.90;;;;;;5093913;28;1929;-72
2023/03/22 10:55:13;;;;;;;;;;;9.80;99.90;;;;;;5111565;28;1132;-72
2023/03/22 10:57:39;;;;;;;;;;;9.80;99.90;;;;;;5111800;28;1179;-72
2023/03/22 11:00:08;;;;;;;;;;;9.80;99.90;;;;;;5093967;28;1089;-72
2023/03/22 11:02:34;;;;;;;;;;;9.60;99.90;;;;;;5112150;28;1100;-72
2023/03/22 11:05:02;;;;;;;;;;;9.60;99.90;;;;;;5111533;28;1169;-72
2023/03/22 11:07:30;;;;;;;;;;;9.60;99.90;;;;;;5103165;28;1085;-72
2023/03/22 11:09:58;;;;;;;;;;;9.50;99.90;;;;;;5112201;28;1187;-72
2023/03/22 11:12:24;;;;;;;;;;;9.50;99.90;;;;;;5111146;28;1929;-72
2023/03/22 11:14:50;;;;;;;;;;;9.40;99.90;;;;;;5112291;28;1183;-72
2023/03/22 11:17:18;;;;;;;;;;;9.40;99.90;;;;;;5111903;28;1100;-72
2023/03/22 11:19:57;;;;;;;;;;;9.40;99.90;;;;;;5093669;28;1187;-72
2023/03/22 11:22:33;;;;;;;;;;;9.30;99.90;;;;;;5111288;28;1085;-72
2023/03/22 11:24:59;;;;;;;;;;;9.50;99.90;;;;;;5139743;27;1232;-71
2023/03/22 11:27:27;;;;;;;;;;;9.50;99.90;;;;;;5101191;28;1223;-72
2023/03/22 11:29:56;;;;;;;;;;;9.30;99.90;;;;;;5101531;28;1738;-72
2023/03/22 11:32:31;;;;;;;;;;;9.40;99.90;;;;;;5109887;27;1914;-72
2023/03/22 11:35:10;;;;;;;;;;;9.50;99.90;;;;;;5108219;28;1092;-72
2023/03/22 11:37:40;;;;;;;;;;;9.50;99.90;;;;;;5129941;27;1108;-71
2023/03/22 11:40:09;;;;;;;;;;;9.60;99.90;;;;;;5110576;28;1123;-71
2023/03/22 11:42:35;;;;;;;;;;;9.50;99.90;;;;;;5125850;27;1224;-71
2023/03/22 11:45:01;;;;;;;;;;;9.70;99.90;;;;;;5111704;28;1136;-72
2023/03/22 11:47:27;;;;;;;;;;;9.70;99.90;;;;;;5110552;28;1124;-72
2023/03/22 11:49:55;;;;;;;;;;;9.60;99.90;;;;;;5092561;28;1054;-72
2023/03/22 11:52:23;;;;;;;;;;;9.70;99.90;;;;;;5111505;28;1909;-72
2023/03/22 11:54:49;;;;;;;;;;;9.70;99.90;;;;;;5110732;28;1092;-72
2023/03/22 11:57:18;;;;;;;;;;;9.70;99.90;;;;;;5095208;28;1109;-72
2023/03/22 11:59:46;;;;;;;;;;;9.70;99.90;;;;;;5127149;27;1071;-72
2023/03/22 12:02:13;;;;;;;;;;;9.70;99.90;;;;;;5131047;27;1175;-72
2023/03/22 12:04:40;;;;;;;;;;;9.60;99.90;;;;;;5131710;27;1099;-72
2023/03/22 12:07:13;;;;;;;;;;;9.70;99.90;;;;;;5095486;28;1266;-72
2023/03/22 12:09:42;;;;;;;;;;;9.70;99.90;;;;;;5110408;28;1092;-70
2023/03/22 12:12:11;;;;;;;;;;;9.70;99.90;;;;;;5110931;28;1969;-70
2023/03/22 12:14:42;;;;;;;;;;;9.70;99.90;;;;;;5110354;28;1104;-70
2023/03/22 12:17:16;;;;;;;;;;;9.80;99.90;;;;;;5112665;27;1312;-70
2023/03/22 12:19:47;;;;;;;;;;;9.80;99.90;;;;;;5116631;27;1095;-70
2023/03/22 12:22:15;;;;;;;;;;;9.70;99.90;;;;;;5121449;27;1286;-70
2023/03/22 12:24:41;;;;;;;;;;;9.70;99.90;;;;;;5109543;28;1173;-72
2023/03/22 12:27:12;;;;;;;;;;;9.70;99.90;;;;;;5110620;28;1120;-72
2023/03/22 12:29:43;;;;;;;;;;;9.70;99.90;;;;;;5138405;27;1140;-72
2023/03/22 12:32:14;;;;;;;;;;;9.80;99.90;;;;;;5094643;28;1980;-72
2023/03/22 12:34:42;;;;;;;;;;;9.80;99.90;;;;;;5107661;28;1227;-72
2023/03/22 12:37:13;;;;;;;;;;;9.70;99.90;;;;;;5112531;27;1322;-72
2023/03/22 12:39:45;;;;;;;;;;;9.90;99.90;;;;;;5108218;28;1204;-72
2023/03/22 12:42:14;;;;;;;;;;;9.80;99.90;;;;;;5109781;28;1298;-73
2023/03/22 12:44:42;;;;;;;;;;;9.90;99.90;;;;;;5109682;28;1222;-73
2023/03/22 12:47:13;;;;;;;;;;;9.80;99.90;;;;;;5109084;28;1179;-72
2023/03/22 12:49:40;;;;;;;;;;;9.90;99.90;;;;;;5091667;28;1077;-72
2023/03/22 12:52:21;;;;;;;;;;;9.70;99.90;;;;;;5109935;28;1980;-72
2023/03/22 12:54:48;;;;;;;;;;;9.70;99.90;;;;;;5109771;28;1112;-72
2023/03/22 12:57:15;;;;;;;;;;;9.50;99.90;;;;;;5109764;28;1115;-72
2023/03/22 12:59:42;;;;;;;;;;;9.50;99.90;;;;;;5091583;28;1364;-72
2023/03/22 13:02:14;;;;;;;;;;;9.30;99.90;;;;;;5110056;28;1026;-72
2023/03/22 13:04:42;;;;;;;;;;;9.50;99.90;;;;;;5109763;28;1124;-72
2023/03/22 13:07:30;;;;;;;;;;;9.50;99.90;;;;;;5091352;28;1236;-72
2023/03/22 13:10:00;;;;;;;;;;;9.40;99.90;;;;;;5108407;28;1097;-72
2023/03/22 13:12:27;;;;;;;;;;;9.40;99.90;;;;;;5109526;28;1983;-72
2023/03/22 13:14:55;;;;;;;;;;;9.30;99.90;;;;;;5091363;28;1294;-72
2023/03/22 13:17:20;;;;;;;;;;;9.40;99.90;;;;;;5074228;28;3495;-72
2023/03/22 13:19:58;;;;;;;;;;;9.40;99.90;;;;;;5123874;27;3540;-72
2023/03/22 13:22:26;;;;;;;;;;;9.40;99.90;;;;;;5113120;27;1175;-72
2023/03/22 13:25:03;;;;;;;;;;;9.40;99.90;;;;;;5109706;28;3674;-71
2023/03/22 13:27:37;;;;;;;;;;;9.50;99.90;;;;;;5105255;28;1133;-71
2023/03/22 13:30:04;;;;;;;;;;;9.40;99.90;;;;;;5108446;28;975;-72
2023/03/22 13:32:32;;;;;;;;;;;9.50;99.90;;;;;;5109421;28;1901;-72
2023/03/22 13:34:58;;;;;;;;;;;9.50;99.90;;;;;;5108421;28;3177;-72
2023/03/22 13:37:30;;;;;;;;;;;9.50;99.90;;;;;;5090278;28;1280;-72
2023/03/22 13:40:00;;;;;;;;;;;9.50;99.90;;;;;;5090704;28;1156;-72
2023/03/22 13:42:33;;;;;;;;;;;9.50;99.90;;;;;;5114782;28;1330;-72
2023/03/22 13:45:02;;;;;;;;;;;9.50;99.90;;;;;;5090353;28;1170;-72
2023/03/22 13:47:28;;;;;;;;;;;9.70;99.90;;;;;;5082651;28;1138;-71
2023/03/22 13:49:58;;;;;;;;;;;9.60;99.90;;;;;;5109302;28;1112;-71
2023/03/22 13:52:26;;;;;;;;;;;9.50;99.90;;;;;;5108475;28;1991;-71
2023/03/22 13:54:53;;;;;;;;;;;9.60;99.90;;;;;;5108094;28;1179;-72
2023/03/22 13:57:37;;;;;;;;;;;9.50;99.90;;;;;;5109242;28;1112;-71
2023/03/22 14:00:10;;;;;;;;;;;9.50;99.90;;;;;;5099162;28;1395;-72
2023/03/22 14:02:39;;;;;;;;;;;9.50;99.90;;;;;;5108004;28;1220;-72
2023/03/22 14:05:12;;;;;;;;;;;9.50;99.90;;;;;;5099327;28;1300;-73
2023/03/22 14:07:40;;;;;;;;;;;9.50;99.90;;;;;;5082813;28;1699;-73
2023/03/22 14:10:15;;;;;;;;;;;9.60;99.90;;;;;;5133738;27;1099;-75
2023/03/22 14:12:41;;;;;;;;;;;9.40;99.90;;;;;;5109267;28;1910;-74
2023/03/22 14:15:07;;;;;;;;;;;9.50;99.90;;;;;;5108605;28;1212;-74
2023/03/22 14:17:37;;;;;;;;;;;9.60;99.90;;;;;;5086751;28;3594;-75
2023/03/22 14:20:09;;;;;;;;;;;9.50;99.90;;;;;;5088601;28;3378;-75
2023/03/22 14:22:37;;;;;;;;;;;9.50;99.90;;;;;;5089730;28;3551;-75
2023/03/22 14:25:04;;;;;;;;;;;9.60;99.90;;;;;;5118613;28;1074;-75
2023/03/22 14:27:32;;;;;;;;;;;9.50;99.90;;;;;;5139447;27;1147;-74
2023/03/22 14:29:58;;;;;;;;;;;9.50;99.90;;;;;;5105195;28;1187;-74
2023/03/22 14:32:32;;;;;;;;;;;9.60;99.90;;;;;;5093386;28;1921;-75
2023/03/22 14:35:01;;;;;;;;;;;9.60;99.90;;;;;;5094554;28;3136;-74
2023/03/22 14:37:26;;;;;;;;;;;9.40;99.90;;;;;;5104749;28;1184;-73
2023/03/22 14:39:52;;;;;;;;;;;9.50;99.90;;;;;;5108806;28;1077;-74
2023/03/22 14:42:21;;;;;;;;;;;9.50;99.90;;;;;;5090436;28;1717;-74
2023/03/22 14:44:48;;;;;;;;;;;9.60;99.90;;;;;;5087820;28;1159;-75
2023/03/22 14:47:16;;;;;;;;;;;9.50;99.90;;;;;;5096474;28;1101;-76
2023/03/22 14:49:43;;;;;;;;;;;9.60;99.90;;;;;;5090072;28;1405;-76
2023/03/22 14:52:14;;;;;;;;;;;9.60;99.90;;;;;;5090104;28;1980;-76
2023/03/22 14:54:41;;;;;;;;;;;9.50;99.90;;;;;;5098939;28;1103;-76